sensor_id;sensor_type;location;lat;lon;timestamp;P1;durP1;ratioP1;P2;durP2;ratioP2
45762;SDS011;37512;52.408;13.356;2024-03-02T00:01:26;64.45;;;35.50;;
45762;SDS011;37512;52.408;13.356;2024-03-02T00:05:28;68.85;;;36.20;;
45762;SDS011;37512;52.408;13.356;2024-03-02T00:09:30;65.85;;;35.28;;
45762;SDS011;37512;52.408;13.356;2024-03-02T00:13:31;68.72;;;36.15;;
45762;SDS011;37512;52.408;13.356;2024-03-02T00:17:38;61.28;;;35.72;;
45762;SDS011;37512;52.408;13.356;2024-03-02T00:21:40;67.50;;;37.50;;
45762;SDS011;37512;52.408;13.356;2024-03-02T00:25:46;58.88;;;35.38;;
45762;SDS011;37512;52.408;13.356;2024-03-02T00:29:50;64.43;;;35.35;;
45762;SDS011;37512;52.408;13.356;2024-03-02T00:33:52;62.22;;;34.97;;
45762;SDS011;37512;52.408;13.356;2024-03-02T00:37:54;63.90;;;35.42;;
45762;SDS011;37512;52.408;13.356;2024-03-02T00:41:56;74.20;;;36.40;;
45762;SDS011;37512;52.408;13.356;2024-03-02T00:46:00;58.30;;;34.15;;
45762;SDS011;37512;52.408;13.356;2024-03-02T00:50:03;58.15;;;34.55;;
45762;SDS011;37512;52.408;13.356;2024-03-02T00:54:23;66.40;;;37.35;;
45762;SDS011;37512;52.408;13.356;2024-03-02T00:58:27;65.43;;;35.85;;
45762;SDS011;37512;52.408;13.356;2024-03-02T01:02:28;64.20;;;37.03;;
45762;SDS011;37512;52.408;13.356;2024-03-02T01:06:30;67.35;;;37.25;;
45762;SDS011;37512;52.408;13.356;2024-03-02T01:10:32;65.55;;;36.90;;
45762;SDS011;37512;52.408;13.356;2024-03-02T01:14:33;68.00;;;39.42;;
45762;SDS011;37512;52.408;13.356;2024-03-02T01:18:36;65.32;;;36.95;;
45762;SDS011;37512;52.408;13.356;2024-03-02T01:22:39;69.13;;;39.22;;
45762;SDS011;37512;52.408;13.356;2024-03-02T01:26:40;72.97;;;38.13;;
45762;SDS011;37512;52.408;13.356;2024-03-02T01:30:42;66.15;;;37.15;;
45762;SDS011;37512;52.408;13.356;2024-03-02T01:34:44;67.00;;;38.15;;
45762;SDS011;37512;52.408;13.356;2024-03-02T01:38:46;66.32;;;38.28;;
45762;SDS011;37512;52.408;13.356;2024-03-02T01:42:47;71.90;;;38.90;;
45762;SDS011;37512;52.408;13.356;2024-03-02T01:46:49;63.63;;;37.63;;
45762;SDS011;37512;52.408;13.356;2024-03-02T01:50:52;73.43;;;39.10;;
45762;SDS011;37512;52.408;13.356;2024-03-02T01:54:53;71.13;;;39.50;;
45762;SDS011;37512;52.408;13.356;2024-03-02T01:58:58;68.50;;;39.95;;
45762;SDS011;37512;52.408;13.356;2024-03-02T02:03:00;74.43;;;41.40;;
45762;SDS011;37512;52.408;13.356;2024-03-02T02:07:01;72.80;;;40.88;;
45762;SDS011;37512;52.408;13.356;2024-03-02T02:11:03;69.75;;;40.78;;
45762;SDS011;37512;52.408;13.356;2024-03-02T02:15:21;73.95;;;40.47;;
45762;SDS011;37512;52.408;13.356;2024-03-02T02:19:24;69.50;;;39.13;;
45762;SDS011;37512;52.408;13.356;2024-03-02T02:23:25;67.57;;;37.85;;
45762;SDS011;37512;52.408;13.356;2024-03-02T02:27:27;66.47;;;37.50;;
45762;SDS011;37512;52.408;13.356;2024-03-02T02:31:36;68.13;;;39.45;;
45762;SDS011;37512;52.408;13.356;2024-03-02T02:35:41;69.00;;;38.25;;
45762;SDS011;37512;52.408;13.356;2024-03-02T02:39:43;70.32;;;37.22;;
45762;SDS011;37512;52.408;13.356;2024-03-02T02:43:45;73.55;;;40.17;;
45762;SDS011;37512;52.408;13.356;2024-03-02T02:47:47;63.90;;;38.25;;
45762;SDS011;37512;52.408;13.356;2024-03-02T02:51:49;74.28;;;43.17;;
45762;SDS011;37512;52.408;13.356;2024-03-02T02:55:52;73.68;;;38.72;;
45762;SDS011;37512;52.408;13.356;2024-03-02T02:59:54;72.35;;;38.78;;
45762;SDS011;37512;52.408;13.356;2024-03-02T03:03:55;70.03;;;40.00;;
45762;SDS011;37512;52.408;13.356;2024-03-02T03:07:57;69.95;;;39.08;;
45762;SDS011;37512;52.408;13.356;2024-03-02T03:11:58;77.03;;;40.97;;
45762;SDS011;37512;52.408;13.356;2024-03-02T03:16:00;73.13;;;40.53;;
45762;SDS011;37512;52.408;13.356;2024-03-02T03:20:02;68.70;;;41.40;;
45762;SDS011;37512;52.408;13.356;2024-03-02T03:24:05;68.70;;;37.60;;
45762;SDS011;37512;52.408;13.356;2024-03-02T03:28:07;74.82;;;40.20;;
45762;SDS011;37512;52.408;13.356;2024-03-02T03:32:11;72.88;;;37.97;;
45762;SDS011;37512;52.408;13.356;2024-03-02T03:36:12;62.75;;;38.05;;
45762;SDS011;37512;52.408;13.356;2024-03-02T03:40:14;72.60;;;39.58;;
45762;SDS011;37512;52.408;13.356;2024-03-02T03:44:17;70.93;;;39.42;;
45762;SDS011;37512;52.408;13.356;2024-03-02T03:48:18;65.07;;;38.42;;
45762;SDS011;37512;52.408;13.356;2024-03-02T03:52:20;63.55;;;37.35;;
45762;SDS011;37512;52.408;13.356;2024-03-02T03:56:22;61.38;;;37.10;;
45762;SDS011;37512;52.408;13.356;2024-03-02T04:00:23;61.15;;;38.38;;
45762;SDS011;37512;52.408;13.356;2024-03-02T04:04:25;64.57;;;35.88;;
45762;SDS011;37512;52.408;13.356;2024-03-02T04:08:26;65.10;;;36.35;;
45762;SDS011;37512;52.408;13.356;2024-03-02T04:12:30;61.55;;;35.92;;
45762;SDS011;37512;52.408;13.356;2024-03-02T04:16:32;63.42;;;37.42;;
45762;SDS011;37512;52.408;13.356;2024-03-02T04:20:34;57.03;;;33.20;;
45762;SDS011;37512;52.408;13.356;2024-03-02T04:24:35;61.72;;;35.60;;
45762;SDS011;37512;52.408;13.356;2024-03-02T04:28:37;65.18;;;37.42;;
45762;SDS011;37512;52.408;13.356;2024-03-02T04:32:41;65.25;;;36.95;;
45762;SDS011;37512;52.408;13.356;2024-03-02T04:36:43;59.95;;;34.08;;
45762;SDS011;37512;52.408;13.356;2024-03-02T04:40:44;57.45;;;33.63;;
45762;SDS011;37512;52.408;13.356;2024-03-02T04:44:46;64.82;;;35.38;;
45762;SDS011;37512;52.408;13.356;2024-03-02T04:48:47;65.15;;;36.20;;
45762;SDS011;37512;52.408;13.356;2024-03-02T04:52:56;57.83;;;34.60;;
45762;SDS011;37512;52.408;13.356;2024-03-02T04:56:57;59.33;;;34.22;;
45762;SDS011;37512;52.408;13.356;2024-03-02T05:00:59;65.50;;;35.63;;
45762;SDS011;37512;52.408;13.356;2024-03-02T05:05:01;59.70;;;36.40;;
45762;SDS011;37512;52.408;13.356;2024-03-02T05:09:03;61.17;;;34.63;;
45762;SDS011;37512;52.408;13.356;2024-03-02T05:13:05;68.38;;;37.45;;
45762;SDS011;37512;52.408;13.356;2024-03-02T05:17:06;65.30;;;36.35;;
45762;SDS011;37512;52.408;13.356;2024-03-02T05:21:11;58.30;;;35.17;;
45762;SDS011;37512;52.408;13.356;2024-03-02T05:25:13;69.55;;;35.63;;
45762;SDS011;37512;52.408;13.356;2024-03-02T05:29:14;64.70;;;35.60;;
45762;SDS011;37512;52.408;13.356;2024-03-02T05:33:16;66.90;;;36.63;;
45762;SDS011;37512;52.408;13.356;2024-03-02T05:37:17;63.47;;;35.33;;
45762;SDS011;37512;52.408;13.356;2024-03-02T05:41:19;65.78;;;36.72;;
45762;SDS011;37512;52.408;13.356;2024-03-02T05:45:21;64.25;;;36.90;;
45762;SDS011;37512;52.408;13.356;2024-03-02T05:49:22;67.35;;;38.65;;
45762;SDS011;37512;52.408;13.356;2024-03-02T05:53:24;69.50;;;37.47;;
45762;SDS011;37512;52.408;13.356;2024-03-02T05:57:25;71.13;;;37.78;;
45762;SDS011;37512;52.408;13.356;2024-03-02T06:01:42;73.03;;;38.40;;
45762;SDS011;37512;52.408;13.356;2024-03-02T06:05:44;71.15;;;39.70;;
45762;SDS011;37512;52.408;13.356;2024-03-02T06:09:46;81.40;;;41.47;;
45762;SDS011;37512;52.408;13.356;2024-03-02T06:13:49;75.25;;;41.47;;
45762;SDS011;37512;52.408;13.356;2024-03-02T06:17:51;72.82;;;40.17;;
45762;SDS011;37512;52.408;13.356;2024-03-02T06:21:53;75.90;;;40.40;;
45762;SDS011;37512;52.408;13.356;2024-03-02T06:25:54;75.05;;;41.95;;
45762;SDS011;37512;52.408;13.356;2024-03-02T06:29:56;74.07;;;40.50;;
45762;SDS011;37512;52.408;13.356;2024-03-02T06:33:57;75.60;;;40.58;;
45762;SDS011;37512;52.408;13.356;2024-03-02T06:37:59;73.05;;;38.08;;
45762;SDS011;37512;52.408;13.356;2024-03-02T06:42:00;72.25;;;40.33;;
45762;SDS011;37512;52.408;13.356;2024-03-02T06:46:02;77.95;;;40.80;;
45762;SDS011;37512;52.408;13.356;2024-03-02T06:50:04;80.10;;;43.55;;
45762;SDS011;37512;52.408;13.356;2024-03-02T06:54:08;82.50;;;44.90;;
45762;SDS011;37512;52.408;13.356;2024-03-02T06:58:09;77.82;;;41.83;;
45762;SDS011;37512;52.408;13.356;2024-03-02T07:02:11;74.03;;;41.78;;
45762;SDS011;37512;52.408;13.356;2024-03-02T07:06:15;70.72;;;36.55;;
45762;SDS011;37512;52.408;13.356;2024-03-02T07:10:17;75.65;;;40.83;;
45762;SDS011;37512;52.408;13.356;2024-03-02T07:14:19;77.20;;;40.05;;
45762;SDS011;37512;52.408;13.356;2024-03-02T07:18:20;65.55;;;36.10;;
45762;SDS011;37512;52.408;13.356;2024-03-02T07:22:23;69.65;;;38.70;;
45762;SDS011;37512;52.408;13.356;2024-03-02T07:26:25;68.75;;;35.00;;
45762;SDS011;37512;52.408;13.356;2024-03-02T07:30:29;70.40;;;38.58;;
45762;SDS011;37512;52.408;13.356;2024-03-02T07:34:34;59.60;;;36.03;;
45762;SDS011;37512;52.408;13.356;2024-03-02T07:38:36;68.50;;;36.75;;
45762;SDS011;37512;52.408;13.356;2024-03-02T07:42:40;65.60;;;37.42;;
45762;SDS011;37512;52.408;13.356;2024-03-02T07:46:45;63.90;;;37.05;;
45762;SDS011;37512;52.408;13.356;2024-03-02T07:50:55;69.10;;;37.75;;
45762;SDS011;37512;52.408;13.356;2024-03-02T07:54:56;72.85;;;38.30;;
45762;SDS011;37512;52.408;13.356;2024-03-02T07:58:58;71.05;;;35.95;;
45762;SDS011;37512;52.408;13.356;2024-03-02T08:03:02;68.78;;;36.75;;
45762;SDS011;37512;52.408;13.356;2024-03-02T08:07:04;69.65;;;37.38;;
45762;SDS011;37512;52.408;13.356;2024-03-02T08:11:06;73.10;;;39.58;;
45762;SDS011;37512;52.408;13.356;2024-03-02T08:15:08;64.43;;;37.22;;
45762;SDS011;37512;52.408;13.356;2024-03-02T08:19:09;71.22;;;37.70;;
45762;SDS011;37512;52.408;13.356;2024-03-02T08:23:11;69.85;;;37.35;;
45762;SDS011;37512;52.408;13.356;2024-03-02T08:27:13;65.05;;;36.15;;
45762;SDS011;37512;52.408;13.356;2024-03-02T08:31:14;66.00;;;34.13;;
45762;SDS011;37512;52.408;13.356;2024-03-02T08:35:16;59.65;;;35.28;;
45762;SDS011;37512;52.408;13.356;2024-03-02T08:39:20;58.08;;;34.70;;
45762;SDS011;37512;52.408;13.356;2024-03-02T08:43:22;60.63;;;36.03;;
45762;SDS011;37512;52.408;13.356;2024-03-02T08:47:23;57.13;;;33.10;;
45762;SDS011;37512;52.408;13.356;2024-03-02T08:51:25;58.92;;;33.45;;
45762;SDS011;37512;52.408;13.356;2024-03-02T08:55:26;58.67;;;32.58;;
45762;SDS011;37512;52.408;13.356;2024-03-02T08:59:28;58.45;;;34.05;;
45762;SDS011;37512;52.408;13.356;2024-03-02T09:03:30;65.35;;;34.45;;
45762;SDS011;37512;52.408;13.356;2024-03-02T09:07:34;61.63;;;34.38;;
45762;SDS011;37512;52.408;13.356;2024-03-02T09:11:36;57.25;;;32.45;;
45762;SDS011;37512;52.408;13.356;2024-03-02T09:15:38;59.92;;;33.05;;
45762;SDS011;37512;52.408;13.356;2024-03-02T09:19:41;58.17;;;31.88;;
45762;SDS011;37512;52.408;13.356;2024-03-02T09:23:42;56.83;;;32.28;;
45762;SDS011;37512;52.408;13.356;2024-03-02T09:27:45;57.28;;;33.22;;
45762;SDS011;37512;52.408;13.356;2024-03-02T09:31:47;61.38;;;32.10;;
45762;SDS011;37512;52.408;13.356;2024-03-02T09:35:50;53.50;;;30.20;;
45762;SDS011;37512;52.408;13.356;2024-03-02T09:39:55;49.13;;;29.55;;
45762;SDS011;37512;52.408;13.356;2024-03-02T09:43:56;48.13;;;28.63;;
45762;SDS011;37512;52.408;13.356;2024-03-02T09:47:59;48.67;;;28.42;;
45762;SDS011;37512;52.408;13.356;2024-03-02T09:52:01;49.45;;;26.90;;
45762;SDS011;37512;52.408;13.356;2024-03-02T09:56:05;39.53;;;22.88;;
45762;SDS011;37512;52.408;13.356;2024-03-02T10:00:07;46.80;;;26.30;;
45762;SDS011;37512;52.408;13.356;2024-03-02T10:04:09;41.33;;;24.92;;
45762;SDS011;37512;52.408;13.356;2024-03-02T10:08:11;40.30;;;24.40;;
45762;SDS011;37512;52.408;13.356;2024-03-02T10:12:14;38.25;;;23.05;;
45762;SDS011;37512;52.408;13.356;2024-03-02T10:16:16;44.92;;;23.02;;
45762;SDS011;37512;52.408;13.356;2024-03-02T10:20:22;44.08;;;23.65;;
45762;SDS011;37512;52.408;13.356;2024-03-02T10:24:24;37.45;;;22.42;;
45762;SDS011;37512;52.408;13.356;2024-03-02T10:28:26;35.67;;;20.50;;
45762;SDS011;37512;52.408;13.356;2024-03-02T10:32:29;39.40;;;21.70;;
45762;SDS011;37512;52.408;13.356;2024-03-02T10:36:31;32.80;;;20.73;;
45762;SDS011;37512;52.408;13.356;2024-03-02T10:40:36;31.05;;;20.40;;
45762;SDS011;37512;52.408;13.356;2024-03-02T10:44:38;36.72;;;21.95;;
45762;SDS011;37512;52.408;13.356;2024-03-02T10:48:40;35.35;;;22.33;;
45762;SDS011;37512;52.408;13.356;2024-03-02T10:52:42;36.40;;;20.75;;
45762;SDS011;37512;52.408;13.356;2024-03-02T10:56:44;36.60;;;21.35;;
45762;SDS011;37512;52.408;13.356;2024-03-02T11:00:47;33.38;;;20.35;;
45762;SDS011;37512;52.408;13.356;2024-03-02T11:04:49;36.03;;;20.33;;
45762;SDS011;37512;52.408;13.356;2024-03-02T11:08:55;36.38;;;21.13;;
45762;SDS011;37512;52.408;13.356;2024-03-02T11:13:00;33.72;;;20.45;;
45762;SDS011;37512;52.408;13.356;2024-03-02T11:17:07;32.55;;;20.05;;
45762;SDS011;37512;52.408;13.356;2024-03-02T11:21:09;28.70;;;17.80;;
45762;SDS011;37512;52.408;13.356;2024-03-02T11:25:27;28.95;;;17.20;;
45762;SDS011;37512;52.408;13.356;2024-03-02T11:33:36;30.08;;;18.20;;
45762;SDS011;37512;52.408;13.356;2024-03-02T11:37:38;27.58;;;17.75;;
45762;SDS011;37512;52.408;13.356;2024-03-02T11:41:40;31.80;;;17.92;;
45762;SDS011;37512;52.408;13.356;2024-03-02T11:45:42;26.67;;;17.10;;
45762;SDS011;37512;52.408;13.356;2024-03-02T11:49:49;33.83;;;19.52;;
45762;SDS011;37512;52.408;13.356;2024-03-02T11:53:55;28.88;;;16.77;;
45762;SDS011;37512;52.408;13.356;2024-03-02T11:57:58;26.15;;;15.90;;
45762;SDS011;37512;52.408;13.356;2024-03-02T12:02:02;24.50;;;17.13;;
45762;SDS011;37512;52.408;13.356;2024-03-02T12:06:04;25.40;;;16.20;;
45762;SDS011;37512;52.408;13.356;2024-03-02T12:10:06;30.90;;;18.10;;
45762;SDS011;37512;52.408;13.356;2024-03-02T12:14:12;24.55;;;15.63;;
45762;SDS011;37512;52.408;13.356;2024-03-02T12:18:14;27.85;;;15.32;;
45762;SDS011;37512;52.408;13.356;2024-03-02T12:22:16;28.45;;;17.88;;
45762;SDS011;37512;52.408;13.356;2024-03-02T12:26:17;26.98;;;17.67;;
45762;SDS011;37512;52.408;13.356;2024-03-02T12:30:19;26.65;;;16.55;;
45762;SDS011;37512;52.408;13.356;2024-03-02T12:34:22;25.98;;;15.57;;
45762;SDS011;37512;52.408;13.356;2024-03-02T12:38:25;27.13;;;16.17;;
45762;SDS011;37512;52.408;13.356;2024-03-02T12:42:27;23.20;;;14.70;;
45762;SDS011;37512;52.408;13.356;2024-03-02T12:46:29;27.55;;;15.88;;
45762;SDS011;37512;52.408;13.356;2024-03-02T12:50:32;25.52;;;16.45;;
45762;SDS011;37512;52.408;13.356;2024-03-02T12:54:34;24.40;;;16.08;;
45762;SDS011;37512;52.408;13.356;2024-03-02T12:58:39;24.77;;;16.13;;
45762;SDS011;37512;52.408;13.356;2024-03-02T13:02:45;28.33;;;17.05;;
45762;SDS011;37512;52.408;13.356;2024-03-02T13:06:47;27.40;;;17.60;;
45762;SDS011;37512;52.408;13.356;2024-03-02T13:10:49;24.88;;;16.20;;
45762;SDS011;37512;52.408;13.356;2024-03-02T13:14:53;24.50;;;15.30;;
45762;SDS011;37512;52.408;13.356;2024-03-02T13:18:55;20.95;;;12.60;;
45762;SDS011;37512;52.408;13.356;2024-03-02T13:22:57;20.75;;;12.60;;
45762;SDS011;37512;52.408;13.356;2024-03-02T13:26:58;22.92;;;12.73;;
45762;SDS011;37512;52.408;13.356;2024-03-02T13:31:01;19.38;;;11.85;;
45762;SDS011;37512;52.408;13.356;2024-03-02T13:35:02;17.23;;;11.18;;
45762;SDS011;37512;52.408;13.356;2024-03-02T13:39:04;17.73;;;11.77;;
45762;SDS011;37512;52.408;13.356;2024-03-02T13:43:12;20.42;;;12.70;;
45762;SDS011;37512;52.408;13.356;2024-03-02T13:47:14;20.92;;;13.13;;
45762;SDS011;37512;52.408;13.356;2024-03-02T13:51:15;19.27;;;11.75;;
45762;SDS011;37512;52.408;13.356;2024-03-02T13:55:17;16.00;;;10.68;;
45762;SDS011;37512;52.408;13.356;2024-03-02T13:59:19;16.63;;;10.35;;
45762;SDS011;37512;52.408;13.356;2024-03-02T14:03:20;17.48;;;11.57;;
45762;SDS011;37512;52.408;13.356;2024-03-02T14:07:24;17.90;;;11.68;;
45762;SDS011;37512;52.408;13.356;2024-03-02T14:11:26;16.70;;;11.13;;
45762;SDS011;37512;52.408;13.356;2024-03-02T14:15:28;14.43;;;10.00;;
45762;SDS011;37512;52.408;13.356;2024-03-02T14:19:31;16.65;;;10.43;;
45762;SDS011;37512;52.408;13.356;2024-03-02T14:23:33;17.52;;;10.27;;
45762;SDS011;37512;52.408;13.356;2024-03-02T14:27:35;17.17;;;10.20;;
45762;SDS011;37512;52.408;13.356;2024-03-02T14:31:56;14.35;;;9.15;;
45762;SDS011;37512;52.408;13.356;2024-03-02T14:35:58;14.25;;;8.60;;
45762;SDS011;37512;52.408;13.356;2024-03-02T14:39:59;15.65;;;8.80;;
45762;SDS011;37512;52.408;13.356;2024-03-02T14:44:02;17.52;;;8.93;;
45762;SDS011;37512;52.408;13.356;2024-03-02T14:48:03;15.40;;;8.48;;
45762;SDS011;37512;52.408;13.356;2024-03-02T14:52:06;14.80;;;9.05;;
45762;SDS011;37512;52.408;13.356;2024-03-02T14:56:09;18.00;;;11.00;;
45762;SDS011;37512;52.408;13.356;2024-03-02T15:00:11;15.52;;;9.27;;
45762;SDS011;37512;52.408;13.356;2024-03-02T15:04:13;14.55;;;8.98;;
45762;SDS011;37512;52.408;13.356;2024-03-02T15:08:15;14.60;;;9.77;;
45762;SDS011;37512;52.408;13.356;2024-03-02T15:12:17;15.27;;;8.60;;
45762;SDS011;37512;52.408;13.356;2024-03-02T15:16:18;13.68;;;9.60;;
45762;SDS011;37512;52.408;13.356;2024-03-02T15:20:20;16.38;;;9.75;;
45762;SDS011;37512;52.408;13.356;2024-03-02T15:24:22;15.48;;;9.30;;
45762;SDS011;37512;52.408;13.356;2024-03-02T15:28:24;16.45;;;10.95;;
45762;SDS011;37512;52.408;13.356;2024-03-02T15:32:26;17.75;;;12.27;;
45762;SDS011;37512;52.408;13.356;2024-03-02T15:36:28;20.33;;;12.07;;
45762;SDS011;37512;52.408;13.356;2024-03-02T15:40:29;17.48;;;10.35;;
45762;SDS011;37512;52.408;13.356;2024-03-02T15:44:32;19.33;;;10.77;;
45762;SDS011;37512;52.408;13.356;2024-03-02T15:48:34;16.83;;;10.68;;
45762;SDS011;37512;52.408;13.356;2024-03-02T15:52:36;16.92;;;10.60;;
45762;SDS011;37512;52.408;13.356;2024-03-02T15:56:41;20.25;;;9.77;;
45762;SDS011;37512;52.408;13.356;2024-03-02T16:00:43;15.05;;;8.98;;
45762;SDS011;37512;52.408;13.356;2024-03-02T16:04:46;15.02;;;8.52;;
45762;SDS011;37512;52.408;13.356;2024-03-02T16:08:48;15.85;;;8.85;;
45762;SDS011;37512;52.408;13.356;2024-03-02T16:12:52;14.55;;;8.85;;
45762;SDS011;37512;52.408;13.356;2024-03-02T16:16:54;16.10;;;9.32;;
45762;SDS011;37512;52.408;13.356;2024-03-02T16:20:56;12.57;;;8.65;;
45762;SDS011;37512;52.408;13.356;2024-03-02T16:25:01;16.27;;;8.57;;
45762;SDS011;37512;52.408;13.356;2024-03-02T16:29:02;16.83;;;8.73;;
45762;SDS011;37512;52.408;13.356;2024-03-02T16:33:04;18.27;;;8.35;;
45762;SDS011;37512;52.408;13.356;2024-03-02T16:37:06;18.45;;;9.63;;
45762;SDS011;37512;52.408;13.356;2024-03-02T16:41:07;12.40;;;8.23;;
45762;SDS011;37512;52.408;13.356;2024-03-02T16:45:10;14.10;;;8.90;;
45762;SDS011;37512;52.408;13.356;2024-03-02T16:49:11;15.57;;;9.18;;
45762;SDS011;37512;52.408;13.356;2024-03-02T16:53:13;19.67;;;10.02;;
45762;SDS011;37512;52.408;13.356;2024-03-02T16:57:17;16.33;;;9.23;;
45762;SDS011;37512;52.408;13.356;2024-03-02T17:01:18;15.10;;;9.73;;
45762;SDS011;37512;52.408;13.356;2024-03-02T17:05:20;14.07;;;9.52;;
45762;SDS011;37512;52.408;13.356;2024-03-02T17:09:25;15.68;;;9.27;;
45762;SDS011;37512;52.408;13.356;2024-03-02T17:13:27;15.43;;;9.60;;
45762;SDS011;37512;52.408;13.356;2024-03-02T17:17:28;18.25;;;9.25;;
45762;SDS011;37512;52.408;13.356;2024-03-02T17:21:30;20.73;;;9.38;;
45762;SDS011;37512;52.408;13.356;2024-03-02T17:25:32;18.77;;;9.90;;
45762;SDS011;37512;52.408;13.356;2024-03-02T17:29:34;15.65;;;9.93;;
45762;SDS011;37512;52.408;13.356;2024-03-02T17:33:36;16.30;;;9.63;;
45762;SDS011;37512;52.408;13.356;2024-03-02T17:37:37;18.95;;;10.02;;
45762;SDS011;37512;52.408;13.356;2024-03-02T17:41:41;21.20;;;10.15;;
45762;SDS011;37512;52.408;13.356;2024-03-02T17:45:43;18.20;;;10.90;;
45762;SDS011;37512;52.408;13.356;2024-03-02T17:49:44;19.00;;;11.18;;
45762;SDS011;37512;52.408;13.356;2024-03-02T17:53:49;21.25;;;13.13;;
45762;SDS011;37512;52.408;13.356;2024-03-02T17:58:00;21.45;;;11.70;;
45762;SDS011;37512;52.408;13.356;2024-03-02T18:02:02;23.40;;;10.82;;
45762;SDS011;37512;52.408;13.356;2024-03-02T18:06:05;19.90;;;12.27;;
45762;SDS011;37512;52.408;13.356;2024-03-02T18:10:10;25.60;;;11.38;;
45762;SDS011;37512;52.408;13.356;2024-03-02T18:14:12;22.70;;;12.27;;
45762;SDS011;37512;52.408;13.356;2024-03-02T18:18:13;18.85;;;11.63;;
45762;SDS011;37512;52.408;13.356;2024-03-02T18:22:15;25.13;;;14.23;;
45762;SDS011;37512;52.408;13.356;2024-03-02T18:26:17;22.77;;;13.98;;
45762;SDS011;37512;52.408;13.356;2024-03-02T18:30:23;21.20;;;13.63;;
45762;SDS011;37512;52.408;13.356;2024-03-02T18:34:25;26.10;;;14.55;;
45762;SDS011;37512;52.408;13.356;2024-03-02T18:38:26;23.05;;;14.57;;
45762;SDS011;37512;52.408;13.356;2024-03-02T18:42:28;23.83;;;14.35;;
45762;SDS011;37512;52.408;13.356;2024-03-02T18:46:30;27.17;;;14.68;;
45762;SDS011;37512;52.408;13.356;2024-03-02T18:50:32;35.63;;;17.02;;
45762;SDS011;37512;52.408;13.356;2024-03-02T18:54:34;28.98;;;14.30;;
45762;SDS011;37512;52.408;13.356;2024-03-02T18:58:35;34.70;;;16.73;;
45762;SDS011;37512;52.408;13.356;2024-03-02T19:02:37;24.55;;;14.90;;
45762;SDS011;37512;52.408;13.356;2024-03-02T19:06:42;27.95;;;16.40;;
45762;SDS011;37512;52.408;13.356;2024-03-02T19:10:45;28.60;;;16.15;;
45762;SDS011;37512;52.408;13.356;2024-03-02T19:14:47;26.33;;;15.63;;
45762;SDS011;37512;52.408;13.356;2024-03-02T19:18:49;29.40;;;16.48;;
45762;SDS011;37512;52.408;13.356;2024-03-02T19:22:50;27.85;;;16.40;;
45762;SDS011;37512;52.408;13.356;2024-03-02T19:26:55;30.60;;;18.08;;
45762;SDS011;37512;52.408;13.356;2024-03-02T19:30:57;31.42;;;18.48;;
45762;SDS011;37512;52.408;13.356;2024-03-02T19:34:58;27.55;;;17.15;;
45762;SDS011;37512;52.408;13.356;2024-03-02T19:39:01;29.17;;;18.30;;
45762;SDS011;37512;52.408;13.356;2024-03-02T19:43:02;33.22;;;18.40;;
45762;SDS011;37512;52.408;13.356;2024-03-02T19:47:04;27.40;;;17.60;;
45762;SDS011;37512;52.408;13.356;2024-03-02T19:51:06;30.90;;;18.55;;
45762;SDS011;37512;52.408;13.356;2024-03-02T19:55:10;32.88;;;18.95;;
45762;SDS011;37512;52.408;13.356;2024-03-02T19:59:17;35.50;;;18.55;;
45762;SDS011;37512;52.408;13.356;2024-03-02T20:03:19;32.03;;;18.80;;
45762;SDS011;37512;52.408;13.356;2024-03-02T20:07:29;33.00;;;18.52;;
45762;SDS011;37512;52.408;13.356;2024-03-02T20:11:31;30.10;;;17.92;;
45762;SDS011;37512;52.408;13.356;2024-03-02T20:15:35;34.90;;;18.33;;
45762;SDS011;37512;52.408;13.356;2024-03-02T20:19:39;30.27;;;18.27;;
45762;SDS011;37512;52.408;13.356;2024-03-02T20:23:43;31.90;;;19.50;;
45762;SDS011;37512;52.408;13.356;2024-03-02T20:27:44;34.72;;;20.35;;
45762;SDS011;37512;52.408;13.356;2024-03-02T20:31:46;32.25;;;19.40;;
45762;SDS011;37512;52.408;13.356;2024-03-02T20:35:48;35.28;;;19.70;;
45762;SDS011;37512;52.408;13.356;2024-03-02T20:39:50;34.58;;;20.85;;
45762;SDS011;37512;52.408;13.356;2024-03-02T20:43:54;32.47;;;20.00;;
45762;SDS011;37512;52.408;13.356;2024-03-02T20:47:55;31.27;;;19.88;;
45762;SDS011;37512;52.408;13.356;2024-03-02T20:51:57;32.92;;;19.77;;
45762;SDS011;37512;52.408;13.356;2024-03-02T20:55:59;33.65;;;19.95;;
45762;SDS011;37512;52.408;13.356;2024-03-02T21:00:00;34.70;;;21.15;;
45762;SDS011;37512;52.408;13.356;2024-03-02T21:04:02;35.60;;;20.98;;
45762;SDS011;37512;52.408;13.356;2024-03-02T21:08:04;34.20;;;19.70;;
45762;SDS011;37512;52.408;13.356;2024-03-02T21:12:06;36.05;;;21.25;;
45762;SDS011;37512;52.408;13.356;2024-03-02T21:16:09;41.45;;;20.38;;
45762;SDS011;37512;52.408;13.356;2024-03-02T21:20:12;31.25;;;18.98;;
45762;SDS011;37512;52.408;13.356;2024-03-02T21:24:14;28.77;;;19.17;;
45762;SDS011;37512;52.408;13.356;2024-03-02T21:28:15;31.55;;;19.20;;
45762;SDS011;37512;52.408;13.356;2024-03-02T21:32:17;32.83;;;17.95;;
45762;SDS011;37512;52.408;13.356;2024-03-02T21:36:22;33.83;;;18.17;;
45762;SDS011;37512;52.408;13.356;2024-03-02T21:40:23;36.05;;;18.85;;
45762;SDS011;37512;52.408;13.356;2024-03-02T21:44:25;32.47;;;18.65;;
45762;SDS011;37512;52.408;13.356;2024-03-02T21:48:26;36.15;;;19.95;;
45762;SDS011;37512;52.408;13.356;2024-03-02T21:52:28;34.95;;;20.20;;
45762;SDS011;37512;52.408;13.356;2024-03-02T21:56:29;34.42;;;21.27;;
45762;SDS011;37512;52.408;13.356;2024-03-02T22:00:31;38.03;;;22.17;;
45762;SDS011;37512;52.408;13.356;2024-03-02T22:04:35;38.55;;;23.23;;
45762;SDS011;37512;52.408;13.356;2024-03-02T22:08:37;32.80;;;21.83;;
45762;SDS011;37512;52.408;13.356;2024-03-02T22:12:38;33.72;;;20.77;;
45762;SDS011;37512;52.408;13.356;2024-03-02T22:16:40;34.85;;;20.83;;
45762;SDS011;37512;52.408;13.356;2024-03-02T22:20:41;34.85;;;21.95;;
45762;SDS011;37512;52.408;13.356;2024-03-02T22:24:43;35.70;;;21.08;;
45762;SDS011;37512;52.408;13.356;2024-03-02T22:28:45;32.25;;;20.02;;
45762;SDS011;37512;52.408;13.356;2024-03-02T22:32:47;34.50;;;19.70;;
45762;SDS011;37512;52.408;13.356;2024-03-02T22:36:49;32.72;;;19.98;;
45762;SDS011;37512;52.408;13.356;2024-03-02T22:40:50;34.83;;;20.55;;
45762;SDS011;37512;52.408;13.356;2024-03-02T22:44:52;36.85;;;20.67;;
45762;SDS011;37512;52.408;13.356;2024-03-02T22:48:54;31.23;;;20.33;;
45762;SDS011;37512;52.408;13.356;2024-03-02T22:52:55;35.08;;;20.45;;
45762;SDS011;37512;52.408;13.356;2024-03-02T22:56:59;33.45;;;19.55;;
45762;SDS011;37512;52.408;13.356;2024-03-02T23:01:04;39.00;;;19.83;;
45762;SDS011;37512;52.408;13.356;2024-03-02T23:05:10;32.83;;;19.73;;
45762;SDS011;37512;52.408;13.356;2024-03-02T23:09:11;33.10;;;19.48;;
45762;SDS011;37512;52.408;13.356;2024-03-02T23:13:13;36.67;;;21.75;;
45762;SDS011;37512;52.408;13.356;2024-03-02T23:17:15;35.08;;;20.63;;
45762;SDS011;37512;52.408;13.356;2024-03-02T23:21:16;38.90;;;22.38;;
45762;SDS011;37512;52.408;13.356;2024-03-02T23:25:18;35.40;;;20.17;;